Time;durP1;ratioP1;P1;durP2;ratioP2;P2;SDS_P1;SDS_P2;PMS_P1;PMS_P2;Temp;Humidity;BMP_temperature;BMP_pressure;BME280_temperature;BME280_humidity;BME280_pressure;Samples;Min_cycle;Max_cycle;Signal;HPM_P1;HPM_P2
2023/06/13 07:23:25;;;;;;;9.13;6.15;;;;;;;-145.79;35.46;76448.97;5313276;27;1202671;-72
2023/06/13 07:25:56;;;;;;;10.30;6.63;;;;;;;-145.79;35.84;76457.47;5343318;27;20035;-73
2023/06/13 07:28:28;;;;;;;7.95;6.38;;;;;;;-145.79;35.68;76455.34;5336516;27;20028;-72
2023/06/13 07:30:59;;;;;;;8.45;6.22;;;;;;;-145.79;35.67;76446.88;5341614;27;20020;-71
2023/06/13 07:33:30;;;;;;;7.80;5.93;;;;;;;-145.79;35.82;76438.38;5339085;28;20031;-73
2023/06/13 07:36:02;;;;;;;6.68;5.82;;;;;;;-145.79;35.93;76419.31;5333931;28;20410;-73
2023/06/13 07:38:34;;;;;;;6.90;6.20;;;;;;;-145.79;35.84;76408.72;5320892;28;20031;-73
2023/06/13 07:41:06;;;;;;;8.27;6.32;;;;;;;-145.79;35.84;76389.66;5338486;28;20386;-70
2023/06/13 07:43:37;;;;;;;7.13;5.82;;;;;;;-145.79;35.76;76385.41;5342858;27;20015;-70
2023/06/13 07:46:08;;;;;;;10.07;6.30;;;;;;;-145.79;35.82;76374.81;5342695;28;20028;-69
2023/06/13 07:48:40;;;;;;;10.52;6.63;;;;;;;-145.79;35.58;76364.22;5341756;28;20019;-69
2023/06/13 07:51:13;;;;;;;7.63;6.00;;;;;;;-145.79;35.56;76349.38;5343167;28;20031;-70
2023/06/13 07:53:44;;;;;;;7.82;5.60;;;;;;;-145.79;34.98;76351.50;5342286;27;20023;-69
2023/06/13 07:56:16;;;;;;;7.38;5.75;;;;;;;-145.79;35.17;76347.25;5341057;27;20475;-67
2023/06/13 07:58:47;;;;;;;8.27;6.05;;;;;;;-145.79;35.01;76355.75;5338136;27;20023;-67
2023/06/13 08:01:21;;;;;;;6.72;5.72;;;;;;;-145.79;35.19;76351.50;5332335;27;20479;-66
2023/06/13 08:03:52;;;;;;;9.82;5.78;;;;;;;-145.79;35.88;76334.56;5321382;28;20460;-66
2023/06/13 08:06:23;;;;;;;9.20;5.72;;;;;;;-145.79;35.48;76330.31;5334272;28;20110;-66
2023/06/13 08:08:55;;;;;;;6.53;5.60;;;;;;;-145.79;35.28;76313.34;5342118;28;20027;-66
2023/06/13 08:11:26;;;;;;;9.75;7.18;;;;;;;-145.79;36.01;76298.53;5342954;28;20114;-67
2023/06/13 08:13:57;;;;;;;6.43;5.82;;;;;;;-145.79;35.13;76298.53;5341346;28;20022;-66
2023/06/13 08:16:35;;;;;;;9.30;6.30;;;;;;;-145.79;35.35;76279.47;5342425;28;20024;-66
2023/06/13 08:19:06;;;;;;;7.25;6.40;;;;;;;-145.79;35.02;76283.69;5342272;28;20480;-67
2023/06/13 08:21:37;;;;;;;9.85;6.38;;;;;;;-145.79;35.78;76273.09;5341578;28;20076;-68
2023/06/13 08:24:11;;;;;;;8.57;6.90;;;;;;;-145.79;34.86;76270.97;5342281;28;20037;-67
2023/06/13 08:26:44;;;;;;;9.55;6.57;;;;;;;-145.79;34.75;76287.94;5341679;27;20141;-67
2023/06/13 08:29:17;;;;;;;8.23;6.10;;;;;;;-145.79;35.00;76264.63;5341954;27;20072;-69
2023/06/13 08:31:49;;;;;;;10.20;5.55;;;;;;;-145.79;34.89;76254.03;5342072;27;20030;-68
2023/06/13 08:34:20;;;;;;;7.25;6.40;;;;;;;-145.79;34.67;76245.56;5329677;27;20474;-67
2023/06/13 08:36:52;;;;;;;8.38;6.03;;;;;;;-145.79;34.75;76239.19;5328049;28;20428;-66
2023/06/13 08:39:23;;;;;;;6.43;5.82;;;;;;;-145.79;34.90;76213.75;5327669;28;20387;-67
2023/06/13 08:41:55;;;;;;;8.20;6.18;;;;;;;-145.79;34.78;76228.59;5327038;28;20042;-69
2023/06/13 08:44:27;;;;;;;7.28;6.05;;;;;;;-145.79;34.06;76234.97;5322012;28;20028;-67
2023/06/13 08:46:59;;;;;;;6.88;5.70;;;;;;;-145.79;34.40;76215.88;5306665;28;20377;-66
2023/06/13 08:49:34;;;;;;;7.90;5.38;;;;;;;-145.79;34.23;76196.81;5326289;28;20031;-67
2023/06/13 08:52:08;;;;;;;;;;;;;;;-145.79;34.46;76175.63;5328011;28;20034;-67
2023/06/13 08:54:43;;;;;;;6.10;5.13;;;;;;;-145.79;33.40;76177.75;5327428;28;19912;-68
2023/06/13 08:57:18;;;;;;;8.20;6.30;;;;;;;-145.79;33.03;76186.22;5326959;28;20030;-68
2023/06/13 08:59:52;;;;;;;8.68;5.72;;;;;;;-145.79;32.98;76165.03;5327344;27;20443;-68
2023/06/13 09:02:25;;;;;;;6.67;5.43;;;;;;;-145.79;32.81;76148.06;5326360;28;20032;-69
2023/06/13 09:04:56;;;;;;;8.20;5.57;;;;;;;-145.79;32.73;76126.88;5326535;28;20327;-69
2023/06/13 09:07:28;;;;;;;8.98;6.25;;;;;;;-145.79;32.69;76152.31;5327438;28;20016;-68
2023/06/13 09:10:00;;;;;;;7.05;5.55;;;;;;;-145.79;32.82;76141.72;5326208;28;20024;-68
2023/06/13 09:12:31;;;;;;;10.40;6.00;;;;;;;-145.79;33.05;76143.84;5310922;28;20117;-68
2023/06/13 09:15:03;;;;;;;11.27;5.28;;;;;;;-145.79;32.67;76131.13;5309275;28;20031;-68
2023/06/13 09:17:35;;;;;;;6.30;5.70;;;;;;;-145.79;32.82;76126.88;5325436;28;20028;-68
2023/06/13 09:20:07;;;;;;;6.18;5.20;;;;;;;-145.79;33.39;76122.66;5326502;28;20031;-69
2023/06/13 09:22:41;;;;;;;11.38;5.78;;;;;;;-145.79;32.38;76122.66;5326747;28;20394;-67
2023/06/13 09:25:17;;;;;;;7.35;5.85;;;;;;;-145.79;32.76;76107.81;5326161;28;20076;-68
2023/06/13 09:27:49;;;;;;;7.88;5.57;;;;;;;-145.79;32.45;76078.16;5326946;28;20024;-69
2023/06/13 09:30:20;;;;;;;6.70;5.00;;;;;;;-145.79;31.88;76071.78;5314791;28;20031;-69
2023/06/13 09:32:53;;;;;;;6.32;5.55;;;;;;;-145.79;32.18;76059.09;5305579;28;20486;-69
2023/06/13 09:35:24;;;;;;;8.50;5.75;;;;;;;-145.79;32.03;76063.31;5325376;28;20034;-69
2023/06/13 09:37:56;;;;;;;8.23;5.50;;;;;;;-145.79;32.06;76040.00;5325720;28;20020;-69
2023/06/13 09:40:27;;;;;;;9.07;5.53;;;;;;;-145.79;32.06;76035.78;5325764;28;20110;-69
2023/06/13 09:43:02;;;;;;;9.35;5.70;;;;;;;-145.79;31.72;76025.19;5326400;28;20031;-69
2023/06/13 09:45:33;;;;;;;7.75;5.70;;;;;;;-145.79;31.75;76027.28;5324061;28;20088;-68
2023/06/13 09:48:05;;;;;;;7.10;4.60;;;;;;;-145.79;31.97;76029.41;5326402;28;20068;-68
2023/06/13 09:50:37;;;;;;;6.38;5.30;;;;;;;-145.79;31.53;76016.69;5326368;28;20031;-68
2023/06/13 09:53:09;;;;;;;6.65;5.80;;;;;;;-145.79;30.85;76020.94;5324625;28;20076;-68
2023/06/13 09:55:41;;;;;;;6.45;5.35;;;;;;;-145.79;30.62;76046.38;5312208;28;20028;-68
2023/06/13 09:58:12;;;;;;;9.48;4.75;;;;;;;-145.79;30.88;76016.69;5314138;28;20464;-68
2023/06/13 10:00:43;;;;;;;7.03;5.35;;;;;;;-145.79;31.01;76012.47;5305048;28;20024;-68
2023/06/13 10:03:18;;;;;;;7.03;5.05;;;;;;;-145.79;30.95;75995.50;5309904;28;20047;-69
2023/06/13 10:05:49;;;;;;;9.40;4.80;;;;;;;-145.79;30.35;75995.50;5322364;28;20030;-69
2023/06/13 10:08:21;;;;;;;7.45;5.30;;;;;;;-145.79;30.50;75978.56;5325624;28;20024;-69
2023/06/13 10:10:54;;;;;;;4.97;4.57;;;;;;;-145.79;29.76;75982.81;5325825;28;20024;-68
2023/06/13 10:13:28;;;;;;;6.85;5.43;;;;;;;-145.79;29.71;75980.69;5324970;28;20080;-69
2023/06/13 10:16:03;;;;;;;8.20;4.60;;;;;;;-145.79;29.62;75963.72;5325527;28;20031;-68
2023/06/13 10:18:37;;;;;;;8.32;5.35;;;;;;;-145.79;29.38;75970.09;5325124;28;20072;-68
2023/06/13 10:21:11;;;;;;;6.20;4.88;;;;;;;-145.79;29.43;75961.63;5324564;28;20034;-69
2023/06/13 10:23:45;;;;;;;7.90;5.30;;;;;;;-145.79;29.21;75957.38;5312231;28;20036;-69
2023/06/13 10:26:43;;;;;;;8.65;4.57;;;;;;;-145.79;29.37;75940.41;5324295;28;20109;-68
2023/06/13 10:29:36;;;;;;;7.65;4.75;;;;;;;-145.79;29.24;75934.06;5324898;28;20501;-68
2023/06/13 10:32:41;;;;;;;7.07;4.50;;;;;;;-145.79;29.08;75936.19;5325362;28;20055;-67
2023/06/13 10:35:30;;;;;;;5.95;4.28;;;;;;;-145.79;29.25;75929.81;5325012;28;20019;-67
2023/06/13 10:38:14;;;;;;;7.03;4.57;;;;;;;-145.79;28.99;75923.47;5317558;28;20052;-68
2023/06/13 10:40:45;;;;;;;5.70;4.55;;;;;;;-145.79;28.94;75912.88;5324395;28;20028;-68
2023/06/13 10:43:26;;;;;;;6.70;4.85;;;;;;;-145.79;29.32;75915.00;5324912;28;20571;-68
2023/06/13 10:46:04;;;;;;;7.85;5.15;;;;;;;-145.79;28.76;75915.00;5304716;28;20070;-67
2023/06/13 10:48:46;;;;;;;8.85;5.18;;;;;;;-145.79;28.84;75919.22;5324419;28;20111;-68
2023/06/13 10:51:27;;;;;;;7.03;4.80;;;;;;;-145.79;29.00;75919.22;5321562;28;20027;-67
2023/06/13 10:54:01;;;;;;;6.85;4.68;;;;;;;-145.79;28.90;75889.56;5319362;28;20020;-68
2023/06/13 10:56:34;;;;;;;8.63;5.45;;;;;;;-145.79;28.47;75885.34;5306734;28;20071;-68
2023/06/13 10:59:08;;;;;;;6.95;4.45;;;;;;;-145.79;27.83;75881.09;5313748;28;20020;-68
2023/06/13 11:01:41;;;;;;;6.35;4.90;;;;;;;-145.79;27.76;75881.09;5323909;28;20035;-68
2023/06/13 11:04:19;;;;;;;5.82;4.88;;;;;;;-145.79;27.64;75881.09;5317996;28;20023;-68
2023/06/13 11:06:52;;;;;;;5.18;4.68;;;;;;;-145.79;27.48;75859.91;5310718;28;20032;-67
2023/06/13 11:09:24;;;;;;;5.78;4.80;;;;;;;-145.79;27.41;75851.44;5316757;28;20045;-67
2023/06/13 11:11:58;;;;;;;6.90;4.28;;;;;;;-145.79;27.43;75855.66;5320149;28;20034;-68
2023/06/13 11:14:37;;;;;;;6.57;4.30;;;;;;;-145.79;27.75;75851.44;5325157;28;20028;-68
2023/06/13 11:17:08;;;;;;;5.38;4.32;;;;;;;-145.79;27.05;75836.59;5323592;28;20028;-67
2023/06/13 11:19:39;;;;;;;7.40;5.22;;;;;;;-145.79;27.66;75851.44;5319920;28;20032;-67
2023/06/13 11:22:13;;;;;;;6.53;4.65;;;;;;;-145.79;27.20;75815.41;5323277;28;20071;-67
2023/06/13 11:24:44;;;;;;;6.35;4.40;;;;;;;-145.79;27.85;75821.75;5315012;28;20387;-67
2023/06/13 11:27:17;;;;;;;5.70;4.32;;;;;;;-145.79;27.33;75830.25;5311596;28;20028;-68
2023/06/13 11:29:48;;;;;;;5.55;4.80;;;;;;;-145.79;27.71;75804.81;5321467;28;20016;-68
2023/06/13 11:32:21;;;;;;;7.10;4.60;;;;;;;-145.79;27.61;75800.56;5320150;28;20360;-68
2023/06/13 11:35:00;;;;;;;8.55;4.85;;;;;;;-145.79;27.49;75785.75;5303079;28;20031;-70
2023/06/13 11:37:44;;;;;;;4.90;4.35;;;;;;;-145.79;27.57;75783.63;5307124;28;20110;-68
2023/06/13 11:40:24;;;;;;;7.47;4.93;;;;;;;-145.79;27.44;75775.16;5324578;28;20028;-68
2023/06/13 11:42:57;;;;;;;9.45;5.45;;;;;;;-145.79;27.30;75760.31;5320330;28;20455;-67
2023/06/13 11:45:28;;;;;;;10.50;4.93;;;;;;;-145.79;26.82;75730.66;5315211;28;20031;-68
2023/06/13 11:47:59;;;;;;;5.43;4.82;;;;;;;-145.79;26.67;75737.00;5324544;28;20016;-68
2023/06/13 11:50:32;;;;;;;13.68;4.80;;;;;;;-145.79;26.91;75743.38;5324388;28;20526;-68
2023/06/13 11:53:05;;;;;;;5.43;4.55;;;;;;;-145.79;26.98;75741.25;5323652;28;20027;-68
2023/06/13 11:55:36;;;;;;;5.25;4.75;;;;;;;-145.79;26.91;75741.25;5324340;28;20471;-68
2023/06/13 11:58:08;;;;;;;6.70;5.22;;;;;;;-145.79;26.55;75722.19;5323552;28;20152;-68
2023/06/13 12:00:55;;;;;;;6.78;5.05;;;;;;;-145.79;26.78;75705.22;5324753;28;20412;-68
2023/06/13 12:03:27;;;;;;;4.90;4.50;;;;;;;-145.79;26.73;75724.31;5324511;28;20054;-68
2023/06/13 12:06:01;;;;;;;7.88;4.57;;;;;;;-145.79;26.26;75713.72;5323398;28;20019;-68
2023/06/13 12:08:36;;;;;;;7.60;5.00;;;;;;;-145.79;26.36;75696.75;5325585;28;20077;-72
2023/06/13 12:11:12;;;;;;;9.65;4.80;;;;;;;-145.79;26.64;75703.13;5328419;27;20023;-68
2023/06/13 12:13:57;;;;;;;8.15;4.72;;;;;;;-145.79;26.77;75681.94;5327659;28;20015;-68
2023/06/13 12:16:32;;;;;;;9.10;6.20;;;;;;;-145.79;26.96;75692.53;5328434;28;20028;-68
2023/06/13 12:19:04;;;;;;;;;;;;;;;-145.79;27.05;75677.69;5321474;28;20038;-67
2023/06/13 12:21:38;;;;;;;8.82;4.88;;;;;;;-145.79;26.58;75681.94;5306595;28;19923;-68
2023/06/13 12:24:10;;;;;;;4.90;4.38;;;;;;;-145.79;26.75;75698.88;5306709;28;20016;-67
2023/06/13 12:26:44;;;;;;;5.75;5.15;;;;;;;-145.79;26.93;75673.44;5306150;28;20429;-68
2023/06/13 12:29:16;;;;;;;6.10;5.45;;;;;;;-145.79;26.84;75664.97;5317780;28;20428;-68
2023/06/13 12:31:48;;;;;;;5.53;5.03;;;;;;;-145.79;26.88;75654.38;5328168;28;20042;-67
2023/06/13 12:34:31;;;;;;;5.80;5.15;;;;;;;-145.79;27.22;75654.38;5326996;28;20020;-68
2023/06/13 12:37:07;;;;;;;12.02;4.65;;;;;;;-145.79;26.72;75652.25;5314020;27;20055;-67
2023/06/13 12:40:03;;;;;;;6.20;4.72;;;;;;;-145.79;26.55;75633.19;5306329;28;20093;-68
2023/06/13 12:42:35;;;;;;;5.55;4.65;;;;;;;-145.79;26.69;75624.72;5306524;28;20028;-68
2023/06/13 12:45:07;;;;;;;6.40;4.72;;;;;;;-145.79;26.30;75618.38;5307713;28;20028;-68
2023/06/13 12:47:38;;;;;;;7.85;5.25;;;;;;;-145.79;26.06;75620.47;5326859;28;20015;-67
2023/06/13 12:50:10;;;;;;;6.03;5.00;;;;;;;-145.79;26.45;75597.19;5327738;28;20034;-67
2023/06/13 12:52:41;;;;;;;5.50;4.88;;;;;;;-145.79;25.73;75620.47;5325814;28;20493;-68
2023/06/13 12:55:15;;;;;;;6.50;4.55;;;;;;;-145.79;26.01;75609.88;5305588;28;20024;-67
2023/06/13 12:57:46;;;;;;;5.50;4.40;;;;;;;-145.79;25.51;75612.00;5327458;28;20018;-68
2023/06/13 13:00:19;;;;;;;5.68;4.88;;;;;;;-145.79;25.88;75597.19;5327283;28;20549;-69
2023/06/13 13:02:51;;;;;;;5.35;4.43;;;;;;;-145.79;25.54;75582.34;5326346;28;20027;-68
2023/06/13 13:05:27;;;;;;;11.10;4.30;;;;;;;-145.79;25.48;75576.00;5327343;28;20128;-68
2023/06/13 13:07:59;;;;;;;6.20;4.55;;;;;;;-145.79;24.81;75595.06;5327288;28;20023;-68
2023/06/13 13:10:30;;;;;;;8.75;4.43;;;;;;;-145.79;24.94;75576.00;5326605;28;20016;-68
2023/06/13 13:13:03;;;;;;;5.82;4.30;;;;;;;-145.79;25.43;75571.75;5326997;28;20024;-68
2023/06/13 13:15:35;;;;;;;6.40;5.22;;;;;;;-145.79;23.87;75563.28;5326141;28;20016;-68
2023/06/13 13:18:07;;;;;;;4.70;4.30;;;;;;;-145.79;23.78;75576.00;5326877;27;20022;-68
2023/06/13 13:20:39;;;;;;;10.95;7.40;;;;;;;-145.79;24.49;75563.28;5324862;28;20395;-68
2023/06/13 13:23:10;;;;;;;5.47;4.88;;;;;;;-145.79;24.87;75546.34;5325638;28;20429;-68
2023/06/13 13:25:41;;;;;;;5.68;4.70;;;;;;;-145.79;24.65;75533.63;5326766;28;20020;-68
2023/06/13 13:28:13;;;;;;;9.30;7.53;;;;;;;-145.79;25.20;75516.66;5325585;28;20063;-68
2023/06/13 13:30:44;;;;;;;5.43;4.68;;;;;;;-145.79;24.90;75499.72;5324126;28;20089;-68
2023/06/13 13:33:18;;;;;;;5.18;4.30;;;;;;;-145.79;24.69;75457.34;5326442;28;20028;-68
2023/06/13 13:35:49;;;;;;;8.77;4.68;;;;;;;-145.79;24.90;75448.88;5325650;28;20492;-69
2023/06/13 13:38:20;;;;;;;7.15;5.28;;;;;;;-145.79;25.03;75448.88;5325568;28;20016;-67
2023/06/13 13:40:53;;;;;;;6.18;4.35;;;;;;;-145.79;25.08;75455.22;5326505;28;20077;-68
2023/06/13 13:43:25;;;;;;;4.60;4.20;;;;;;;-145.79;24.74;75446.75;5325090;28;20032;-68
2023/06/13 13:45:56;;;;;;;7.20;4.90;;;;;;;-145.79;24.61;75442.53;5326309;28;20090;-69
2023/06/13 13:48:27;;;;;;;6.30;4.53;;;;;;;-145.79;24.75;75431.94;5325389;28;20023;-70
2023/06/13 13:50:59;;;;;;;8.23;4.78;;;;;;;-145.79;24.48;75434.03;5315827;28;20028;-68
2023/06/13 13:53:30;;;;;;;6.70;4.50;;;;;;;-145.79;24.27;75436.16;5318493;28;20474;-68
2023/06/13 13:56:01;;;;;;;6.95;5.50;;;;;;;-145.79;23.95;75436.16;5309533;28;20032;-68
2023/06/13 13:58:33;;;;;;;6.13;4.22;;;;;;;-145.79;24.23;75455.22;5318466;28;20428;-68
2023/06/13 14:01:04;;;;;;;4.97;4.55;;;;;;;-145.79;23.88;75448.88;5313201;28;20457;-68
2023/06/13 14:03:36;;;;;;;6.70;4.65;;;;;;;-145.79;23.51;75493.38;5304025;28;20020;-67
2023/06/13 14:06:08;;;;;;;4.68;4.25;;;;;;;-145.79;24.46;75453.09;5303754;28;20050;-67
2023/06/13 14:08:43;;;;;;;6.70;5.93;;;;;;;-145.79;24.24;75438.28;5304850;28;20097;-68
2023/06/13 14:11:14;;;;;;;6.22;4.43;;;;;;;-145.79;24.86;75421.34;5315453;28;20024;-68
2023/06/13 14:13:46;;;;;;;5.13;4.50;;;;;;;-145.79;24.31;75423.44;5325371;28;20102;-68
2023/06/13 14:16:18;;;;;;;6.30;4.47;;;;;;;-145.79;24.26;75414.97;5325003;28;20073;-68
2023/06/13 14:18:49;;;;;;;5.20;4.65;;;;;;;-145.79;24.44;75393.78;5324882;28;20020;-68
2023/06/13 14:21:21;;;;;;;18.33;16.75;;;;;;;-145.79;25.78;75376.84;5325360;28;20019;-67
2023/06/13 14:23:55;;;;;;;5.68;5.15;;;;;;;-145.79;24.26;75381.09;5325747;28;20122;-67
2023/06/13 14:26:27;;;;;;;4.78;4.38;;;;;;;-145.79;24.42;75374.72;5324908;28;20111;-67
2023/06/13 14:28:58;;;;;;;8.45;6.85;;;;;;;-145.79;24.13;75353.53;5321407;28;20551;-67
2023/06/13 14:31:30;;;;;;;5.55;5.05;;;;;;;-145.79;24.03;75362.00;5303466;28;20016;-67
2023/06/13 14:34:01;;;;;;;4.75;4.35;;;;;;;-145.79;24.29;75345.06;5302750;28;20032;-67
2023/06/13 14:36:32;;;;;;;7.70;4.93;;;;;;;-145.79;24.62;75349.31;5304013;28;20452;-67
2023/06/13 14:39:05;;;;;;;7.78;5.93;;;;;;;-145.79;23.64;75336.59;5304146;28;20058;-68
2023/06/13 14:41:37;;;;;;;6.70;4.90;;;;;;;-145.79;24.17;75342.94;5319489;28;20057;-67
2023/06/13 14:44:08;;;;;;;6.07;5.28;;;;;;;-145.79;23.85;75330.22;5305475;28;20028;-68
2023/06/13 14:46:39;;;;;;;5.90;4.50;;;;;;;-145.79;24.32;75323.88;5324124;28;20102;-68
2023/06/13 14:49:11;;;;;;;5.43;4.32;;;;;;;-145.79;23.78;75362.00;5312357;27;20503;-68
2023/06/13 14:51:42;;;;;;;4.95;4.55;;;;;;;-145.79;24.44;75351.41;5303803;28;20107;-68
2023/06/13 14:54:15;;;;;;;5.93;5.03;;;;;;;-145.79;23.87;75364.13;5303285;28;20028;-67
2023/06/13 14:56:47;;;;;;;5.10;4.70;;;;;;;-145.79;24.37;75347.19;5303895;28;20467;-68
2023/06/13 14:59:18;;;;;;;6.38;5.13;;;;;;;-145.79;23.96;75355.66;5303848;28;20027;-67
2023/06/13 15:01:50;;;;;;;12.30;11.18;;;;;;;-145.79;24.23;75328.13;5310220;28;20031;-68
2023/06/13 15:04:21;;;;;;;7.45;4.70;;;;;;;-145.79;23.86;75338.72;5325092;28;20019;-68
2023/06/13 15:06:55;;;;;;;6.57;4.53;;;;;;;-145.79;23.86;75347.19;5316734;28;20069;-67
2023/06/13 15:09:26;;;;;;;7.13;6.43;;;;;;;-145.79;24.33;75338.72;5302852;28;20024;-67
2023/06/13 15:11:59;;;;;;;9.05;5.63;;;;;;;-145.79;24.36;75368.38;5303940;28;20073;-69
2023/06/13 15:14:30;;;;;;;4.72;4.18;;;;;;;-145.79;24.63;75362.00;5303854;28;20020;-68
2023/06/13 15:17:01;;;;;;;6.90;4.70;;;;;;;-145.79;24.30;75381.09;5302699;28;20241;-67
2023/06/13 15:19:36;;;;;;;5.25;4.05;;;;;;;-145.79;24.25;75385.31;5316800;28;20030;-68
2023/06/13 15:22:07;;;;;;;7.63;4.88;;;;;;;-145.79;24.36;75395.91;5323228;28;20048;-69
2023/06/13 15:24:38;;;;;;;5.43;4.40;;;;;;;-145.79;24.40;75404.38;5324845;28;20034;-68
2023/06/13 15:27:11;;;;;;;5.65;4.10;;;;;;;-145.79;24.66;75404.38;5324548;28;20055;-68
2023/06/13 15:29:43;;;;;;;5.45;3.95;;;;;;;-145.79;24.33;75414.97;5319805;28;20032;-68
2023/06/13 15:32:19;;;;;;;6.03;4.78;;;;;;;-145.79;24.74;75406.50;5323612;28;20028;-68
2023/06/13 15:34:50;;;;;;;6.85;6.18;;;;;;;-145.79;24.55;75398.03;5324778;28;20102;-68
2023/06/13 15:37:24;;;;;;;5.32;4.82;;;;;;;-145.79;24.64;75385.31;5323330;28;20131;-69
2023/06/13 15:39:55;;;;;;;7.00;4.80;;;;;;;-145.79;24.18;75402.25;5324558;28;20390;-68
2023/06/13 15:42:27;;;;;;;8.52;4.47;;;;;;;-145.79;24.54;75406.50;5312405;28;20035;-68
2023/06/13 15:44:59;;;;;;;7.40;4.65;;;;;;;-145.79;24.92;75414.97;5327032;28;20398;-68
2023/06/13 15:47:30;;;;;;;5.18;4.55;;;;;;;-145.79;24.46;75414.97;5328791;28;20020;-68
2023/06/13 15:50:02;;;;;;;5.70;4.45;;;;;;;-145.79;24.58;75393.78;5328210;28;20131;-68
2023/06/13 15:52:33;;;;;;;6.68;5.45;;;;;;;-145.79;24.47;75391.66;5328471;28;20028;-67
2023/06/13 15:55:05;;;;;;;6.10;5.60;;;;;;;-145.79;24.68;75421.34;5328920;28;20020;-68
2023/06/13 15:57:36;;;;;;;6.20;4.25;;;;;;;-145.79;24.63;75427.69;5328112;28;20107;-67
2023/06/13 16:00:08;;;;;;;4.50;4.10;;;;;;;-145.79;24.66;75440.41;5328145;28;20080;-67
2023/06/13 16:02:41;;;;;;;7.55;4.68;;;;;;;-145.79;25.33;75425.56;5327890;28;20034;-67
2023/06/13 16:05:13;;;;;;;6.78;4.20;;;;;;;-145.79;24.74;75414.97;5326991;28;20355;-68
2023/06/13 16:07:44;;;;;;;5.50;4.55;;;;;;;-145.79;25.04;75414.97;5328142;28;20036;-68
2023/06/13 16:10:15;;;;;;;6.22;4.70;;;;;;;-145.79;24.75;75406.50;5328637;28;20020;-68
2023/06/13 16:12:47;;;;;;;7.82;5.35;;;;;;;-145.79;25.11;75402.25;5323703;28;20024;-67
2023/06/13 16:15:18;;;;;;;7.30;4.80;;;;;;;-145.79;24.41;75410.75;5320307;28;20055;-67
2023/06/13 16:17:50;;;;;;;6.13;4.50;;;;;;;-145.79;24.55;75402.25;5328329;28;20483;-67
2023/06/13 16:20:21;;;;;;;6.03;4.10;;;;;;;-145.79;24.52;75391.66;5321689;27;20026;-68
2023/06/13 16:22:53;;;;;;;6.28;4.70;;;;;;;-145.79;24.99;75376.84;5306258;28;20048;-67
2023/06/13 16:25:24;;;;;;;5.22;4.72;;;;;;;-145.79;24.92;75389.56;5306458;28;20043;-67
2023/06/13 16:27:55;;;;;;;7.43;5.35;;;;;;;-145.79;25.24;75414.97;5313792;28;20048;-68
2023/06/13 16:30:27;;;;;;;7.07;6.15;;;;;;;-145.79;24.93;75400.16;5307238;28;20031;-67
2023/06/13 16:32:58;;;;;;;4.95;4.45;;;;;;;-145.79;25.00;75414.97;5305661;28;20135;-67
2023/06/13 16:35:30;;;;;;;5.82;4.60;;;;;;;-145.79;25.31;75425.56;5307062;28;20024;-67
2023/06/13 16:38:02;;;;;;;4.60;4.20;;;;;;;-145.79;25.40;75436.16;5306666;28;20073;-67
2023/06/13 16:40:36;;;;;;;6.28;4.88;;;;;;;-145.79;25.19;75434.03;5305752;28;20024;-67
2023/06/13 16:43:07;;;;;;;7.57;4.80;;;;;;;-145.79;25.05;75400.16;5307921;28;20301;-67
2023/06/13 16:45:39;;;;;;;8.38;4.55;;;;;;;-145.79;24.98;75376.84;5327670;28;20522;-66
2023/06/13 16:48:13;;;;;;;4.50;4.10;;;;;;;-145.79;24.80;75372.59;5327023;28;20023;-67
2023/06/13 16:50:44;;;;;;;6.20;4.75;;;;;;;-145.79;24.94;75389.56;5327545;28;20073;-68
2023/06/13 16:53:17;;;;;;;7.03;4.85;;;;;;;-145.79;25.07;75362.00;5326577;28;20434;-69
